Aérodrome :
LOGIN :

S'inscrire | Disclaimer

   EN    FR    IT 

 










Légende :    VFR   VFR Marginal   IFR   IFR Intensif   IFR Très Intensif
Visi : 
Plafond : 
>= 8 km
>= 3000ft
5 à 8 km
1000 à 3000 ft
1500m à 5 km
500 à 1000 ft
800 à 1500m
200 à 500 ft
< 800m
< 200 ft
Symboles :   Orages  Brouillard  Fortes neiges  Fortes précipitations  Vent > 20 kt
SIGMETs :   Divers  Orages  Givrage  Turbulence  Onde Orograph.  Cendres Volcan.







- Altitude de l'aérodrome : 989 ft
- Code IATA : TRN


LIMF - Torino Caselle

DERNIER METAR :
  • 222150Z 34005KT CAVOK 24/21 Q1017

METARs EXPIRÉS :
  • 222120Z 32003KT CAVOK 26/21 Q1017
  • 222050Z 03004KT 360V060 CAVOK 25/22 Q1017
  • 222020Z 35005KT CAVOK 26/22 Q1016
  • 221950Z 35004KT CAVOK 26/22 Q1016
  • 221920Z 36004KT CAVOK 27/21 Q1015

TAF TAF LIMF
Valide du 22 à 18h jusqu'au 23 à 18h UTC


221700Z 2218/2318 VRB05KT CAVOK
Pas de NOTAMs connus pour ce terrain.
2 SIGMETs publiés pour la FIR Milano (LIMM) :
 
Orages noyés dans la masse
LIMM SIGMET 3 VALID 222205/230205 LIMM- LIMM MILANO FIR EMBD TS OBS NW OF LINE N4404 E00733 - N4641 E01256 TOP FL420 STNR WKN=
Orages noyés dans la masse
LIMM SIGMET 2 VALID 222005/222205 LIMM- LIMM MILANO FIR EMBD TS OBS NW OF LINE N4404 E00733 - N4641 E01256 TOP FL420 STNR WKN=



MET'MAP, la Météo Aéronautique d'un coup d'oeil ! - Copyright ORBIFLY Décembre 2007 - Disclaimer

ORBIFLY MET'MAP TEAM :

Programmation & Développement : Alexandra Zaïnal
Conception & Développement : Baudouin d'Aumeries
Co-Programmation & Développement : Marc-Olivier Méhu
Soutien technique & logistique : Manuel Goepfert

Contact : metmap@orbifly.com




SOURCES & CREDITS :

   NOAA